sensor_id;sensor_type;location;lat;lon;timestamp;pressure;altitude;pressure_sealevel;temperature;humidity
30744;BME280;17486;46.738;7.622;2022-12-18T00:01:13;96037.00;;;1.58;62.71
30744;BME280;17486;46.738;7.622;2022-12-18T00:03:39;95992.63;;;1.32;62.79
30744;BME280;17486;46.738;7.622;2022-12-18T00:06:05;96065.22;;;1.65;62.79
30744;BME280;17486;46.738;7.622;2022-12-18T00:08:30;96050.66;;;1.66;62.81
30744;BME280;17486;46.738;7.622;2022-12-18T00:11:11;96060.91;;;1.68;62.38
30744;BME280;17486;46.738;7.622;2022-12-18T00:13:36;96002.00;;;1.33;62.42
30744;BME280;17486;46.738;7.622;2022-12-18T00:16:07;96030.19;;;1.47;62.79
30744;BME280;17486;46.738;7.622;2022-12-18T00:18:33;96060.06;;;1.65;63.08
30744;BME280;17486;46.738;7.622;2022-12-18T00:21:00;96068.63;;;1.66;62.43
30744;BME280;17486;46.738;7.622;2022-12-18T00:23:27;96050.66;;;1.66;62.37
30744;BME280;17486;46.738;7.622;2022-12-18T00:25:53;96041.28;;;1.53;62.45
30744;BME280;17486;46.738;7.622;2022-12-18T00:28:18;96030.22;;;1.44;62.53
30744;BME280;17486;46.738;7.622;2022-12-18T00:30:44;96068.59;;;1.68;62.95
30744;BME280;17486;46.738;7.622;2022-12-18T00:33:09;96065.19;;;1.67;62.81
30744;BME280;17486;46.738;7.622;2022-12-18T00:35:34;96024.22;;;1.42;62.50
30744;BME280;17486;46.738;7.622;2022-12-18T00:38:00;96064.34;;;1.63;62.22
30744;BME280;17486;46.738;7.622;2022-12-18T00:40:25;96061.78;;;1.68;62.59
30744;BME280;17486;46.738;7.622;2022-12-18T00:42:51;96072.03;;;1.68;62.63
30744;BME280;17486;46.738;7.622;2022-12-18T00:45:27;96083.16;;;1.67;62.29
30744;BME280;17486;46.738;7.622;2022-12-18T00:47:53;96069.47;;;1.63;62.34
30744;BME280;17486;46.738;7.622;2022-12-18T00:50:19;96066.06;;;1.64;62.56
30744;BME280;17486;46.738;7.622;2022-12-18T00:52:44;96018.25;;;1.34;62.77
30744;BME280;17486;46.738;7.622;2022-12-18T00:55:10;96077.19;;;1.60;62.25
30744;BME280;17486;46.738;7.622;2022-12-18T00:57:36;96033.63;;;1.36;62.66
30744;BME280;17486;46.738;7.622;2022-12-18T01:00:02;96072.03;;;1.60;62.77
30744;BME280;17486;46.738;7.622;2022-12-18T01:02:28;96043.00;;;1.38;62.83
30744;BME280;17486;46.738;7.622;2022-12-18T01:04:53;96040.47;;;1.35;62.77
30744;BME280;17486;46.738;7.622;2022-12-18T01:07:18;96079.75;;;1.59;62.83
30744;BME280;17486;46.738;7.622;2022-12-18T01:09:44;96082.31;;;1.51;62.60
30744;BME280;17486;46.738;7.622;2022-12-18T01:12:09;96032.78;;;1.30;62.60
30744;BME280;17486;46.738;7.622;2022-12-18T01:14:35;96088.31;;;1.55;62.77
30744;BME280;17486;46.738;7.622;2022-12-18T01:17:01;96073.75;;;1.55;62.64
30744;BME280;17486;46.738;7.622;2022-12-18T01:19:28;96074.59;;;1.56;62.90
30744;BME280;17486;46.738;7.622;2022-12-18T01:21:54;96079.75;;;1.53;62.69
30744;BME280;17486;46.738;7.622;2022-12-18T01:24:19;96075.47;;;1.52;62.57
30744;BME280;17486;46.738;7.622;2022-12-18T01:26:45;96068.63;;;1.55;62.47
30744;BME280;17486;46.738;7.622;2022-12-18T01:29:10;96080.59;;;1.52;62.29
30744;BME280;17486;46.738;7.622;2022-12-18T01:31:36;96026.78;;;1.18;62.14
30744;BME280;17486;46.738;7.622;2022-12-18T01:34:02;96090.88;;;1.39;61.71
30744;BME280;17486;46.738;7.622;2022-12-18T01:36:30;96050.69;;;1.16;61.84
30744;BME280;17486;46.738;7.622;2022-12-18T01:38:59;96101.13;;;1.38;61.96
30744;BME280;17486;46.738;7.622;2022-12-18T01:41:28;96054.13;;;1.12;61.48
30744;BME280;17486;46.738;7.622;2022-12-18T01:49:54;96091.69;;;1.32;61.15
30744;BME280;17486;46.738;7.622;2022-12-18T01:52:22;96101.94;;;1.33;61.29
30744;BME280;17486;46.738;7.622;2022-12-18T01:54:50;96088.31;;;1.21;61.16
30744;BME280;17486;46.738;7.622;2022-12-18T01:57:16;96119.88;;;1.33;61.32
30744;BME280;17486;46.738;7.622;2022-12-18T01:59:43;96114.78;;;1.35;61.39
30744;BME280;17486;46.738;7.622;2022-12-18T02:02:11;96117.34;;;1.35;61.44
30744;BME280;17486;46.738;7.622;2022-12-18T02:04:36;96119.91;;;1.40;61.07
30744;BME280;17486;46.738;7.622;2022-12-18T02:09:50;96121.59;;;1.36;61.27
30744;BME280;17486;46.738;7.622;2022-12-18T02:12:19;96121.63;;;1.41;61.60
30744;BME280;17486;46.738;7.622;2022-12-18T02:14:57;96126.75;;;1.39;61.96
30744;BME280;17486;46.738;7.622;2022-12-18T02:17:39;96128.44;;;1.37;61.81
30744;BME280;17486;46.738;7.622;2022-12-18T02:28:20;96139.53;;;1.44;61.45
30744;BME280;17486;46.738;7.622;2022-12-18T02:30:48;96131.84;;;1.36;61.29
30744;BME280;17486;46.738;7.622;2022-12-18T02:33:15;96136.13;;;1.43;61.39
30744;BME280;17486;46.738;7.622;2022-12-18T02:35:45;96101.09;;;1.18;61.27
30744;BME280;17486;46.738;7.622;2022-12-18T02:38:11;96145.56;;;1.43;61.58
30744;BME280;17486;46.738;7.622;2022-12-18T02:40:38;96157.50;;;1.41;61.06
30744;BME280;17486;46.738;7.622;2022-12-18T02:43:13;96146.38;;;1.36;61.53
30744;BME280;17486;46.738;7.622;2022-12-18T02:49:10;96157.50;;;1.42;61.58
30744;BME280;17486;46.738;7.622;2022-12-18T02:51:53;96153.22;;;1.35;61.20
30744;BME280;17486;46.738;7.622;2022-12-18T02:56:54;96166.03;;;1.40;61.34
30744;BME280;17486;46.738;7.622;2022-12-18T02:59:43;96152.38;;;1.31;61.27
30744;BME280;17486;46.738;7.622;2022-12-18T03:02:49;96161.75;;;1.34;61.14
30744;BME280;17486;46.738;7.622;2022-12-18T03:05:27;96122.41;;;1.07;61.23
30744;BME280;17486;46.738;7.622;2022-12-18T03:07:58;96113.88;;;1.08;61.21
30744;BME280;17486;46.738;7.622;2022-12-18T03:10:28;96171.16;;;1.35;61.53
30744;BME280;17486;46.738;7.622;2022-12-18T03:13:02;96178.84;;;1.29;61.27
30744;BME280;17486;46.738;7.622;2022-12-18T03:15:34;96178.84;;;1.32;60.91
30744;BME280;17486;46.738;7.622;2022-12-18T03:18:19;96181.41;;;1.35;61.04
30744;BME280;17486;46.738;7.622;2022-12-18T03:20:49;96185.69;;;1.30;61.74
30744;BME280;17486;46.738;7.622;2022-12-18T03:23:18;96180.53;;;1.28;61.11
30744;BME280;17486;46.738;7.622;2022-12-18T03:25:44;96191.66;;;1.29;61.65
30744;BME280;17486;46.738;7.622;2022-12-18T03:28:19;96190.78;;;1.27;61.33
30744;BME280;17486;46.738;7.622;2022-12-18T03:30:46;96190.78;;;1.24;60.69
30744;BME280;17486;46.738;7.622;2022-12-18T03:33:19;96192.50;;;1.25;61.04
30744;BME280;17486;46.738;7.622;2022-12-18T03:35:47;96197.63;;;1.28;61.34
30744;BME280;17486;46.738;7.622;2022-12-18T03:38:13;96213.00;;;1.31;61.41
30744;BME280;17486;46.738;7.622;2022-12-18T03:40:48;96198.50;;;1.30;61.53
30744;BME280;17486;46.738;7.622;2022-12-18T03:43:29;96201.06;;;1.30;61.31
30744;BME280;17486;46.738;7.622;2022-12-18T03:46:03;96198.47;;;1.33;61.17
30744;BME280;17486;46.738;7.622;2022-12-18T03:48:38;96209.59;;;1.29;61.21
30744;BME280;17486;46.738;7.622;2022-12-18T03:51:40;96209.59;;;1.32;61.25
30744;BME280;17486;46.738;7.622;2022-12-18T03:54:09;96226.69;;;1.33;61.42
30744;BME280;17486;46.738;7.622;2022-12-18T03:56:40;96173.66;;;1.07;61.33
30744;BME280;17486;46.738;7.622;2022-12-18T03:59:07;96216.44;;;1.31;61.45
30744;BME280;17486;46.738;7.622;2022-12-18T04:01:38;96176.22;;;1.07;61.41
30744;BME280;17486;46.738;7.622;2022-12-18T04:04:05;96208.72;;;1.22;61.27
30744;BME280;17486;46.738;7.622;2022-12-18T04:06:32;96171.09;;;1.01;61.41
30744;BME280;17486;46.738;7.622;2022-12-18T04:08:58;96178.78;;;1.01;61.31
30744;BME280;17486;46.738;7.622;2022-12-18T04:11:24;96211.25;;;1.18;60.74
30744;BME280;17486;46.738;7.622;2022-12-18T04:13:49;96211.25;;;1.18;61.30
30744;BME280;17486;46.738;7.622;2022-12-18T04:16:15;96173.63;;;0.96;60.86
30744;BME280;17486;46.738;7.622;2022-12-18T04:18:40;96177.91;;;0.97;61.28
30744;BME280;17486;46.738;7.622;2022-12-18T04:21:06;96190.75;;;1.08;61.25
30744;BME280;17486;46.738;7.622;2022-12-18T04:23:31;96223.22;;;1.22;60.99
30744;BME280;17486;46.738;7.622;2022-12-18T04:25:56;96221.53;;;1.24;61.04
30744;BME280;17486;46.738;7.622;2022-12-18T04:28:22;96229.22;;;1.24;60.75
30744;BME280;17486;46.738;7.622;2022-12-18T04:30:47;96230.06;;;1.23;60.75
30744;BME280;17486;46.738;7.622;2022-12-18T04:33:16;96212.91;;;1.03;60.91
30744;BME280;17486;46.738;7.622;2022-12-18T04:35:41;96236.03;;;1.20;60.87
30744;BME280;17486;46.738;7.622;2022-12-18T04:38:08;96249.72;;;1.21;60.75
30744;BME280;17486;46.738;7.622;2022-12-18T04:40:34;96242.88;;;1.20;60.63
30744;BME280;17486;46.738;7.622;2022-12-18T04:42:59;96242.88;;;1.20;60.71
30744;BME280;17486;46.738;7.622;2022-12-18T04:45:24;96247.16;;;1.21;61.07
30744;BME280;17486;46.738;7.622;2022-12-18T04:47:50;96224.03;;;1.05;60.88
30744;BME280;17486;46.738;7.622;2022-12-18T04:50:15;96206.09;;;0.97;60.54
30744;BME280;17486;46.738;7.622;2022-12-18T04:52:41;96246.28;;;1.20;60.78
30744;BME280;17486;46.738;7.622;2022-12-18T04:55:06;96241.13;;;1.11;60.54
30744;BME280;17486;46.738;7.622;2022-12-18T04:57:32;96246.25;;;1.09;60.53
30744;BME280;17486;46.738;7.622;2022-12-18T04:59:57;96245.41;;;1.09;60.85
30744;BME280;17486;46.738;7.622;2022-12-18T05:02:23;96239.41;;;1.08;60.69
30744;BME280;17486;46.738;7.622;2022-12-18T05:04:48;96229.13;;;0.96;60.72
30744;BME280;17486;46.738;7.622;2022-12-18T05:07:13;96251.34;;;1.05;61.02
30744;BME280;17486;46.738;7.622;2022-12-18T05:09:39;96235.09;;;0.95;60.92
30744;BME280;17486;46.738;7.622;2022-12-18T05:12:04;96204.31;;;0.75;61.17
30744;BME280;17486;46.738;7.622;2022-12-18T05:14:30;96238.53;;;0.98;61.10
30744;BME280;17486;46.738;7.622;2022-12-18T05:16:55;96204.31;;;0.76;61.08
30744;BME280;17486;46.738;7.622;2022-12-18T05:19:21;96251.34;;;1.02;60.99
30744;BME280;17486;46.738;7.622;2022-12-18T05:21:46;96248.78;;;1.03;60.85
30744;BME280;17486;46.738;7.622;2022-12-18T05:24:12;96235.97;;;1.05;61.13
30744;BME280;17486;46.738;7.622;2022-12-18T05:26:37;96192.38;;;0.83;61.03
30744;BME280;17486;46.738;7.622;2022-12-18T05:29:03;96242.84;;;1.09;60.77
30744;BME280;17486;46.738;7.622;2022-12-18T05:31:28;96203.50;;;0.90;60.85
30744;BME280;17486;46.738;7.622;2022-12-18T05:33:53;96236.84;;;1.07;60.85
30744;BME280;17486;46.738;7.622;2022-12-18T05:36:19;96228.31;;;1.09;60.62
30744;BME280;17486;46.738;7.622;2022-12-18T05:38:44;96232.56;;;1.07;61.03
30744;BME280;17486;46.738;7.622;2022-12-18T05:41:10;96235.16;;;1.10;60.58
30744;BME280;17486;46.738;7.622;2022-12-18T05:43:37;96194.09;;;0.87;60.61
30744;BME280;17486;46.738;7.622;2022-12-18T05:46:08;96224.88;;;1.04;60.63
30744;BME280;17486;46.738;7.622;2022-12-18T05:48:33;96235.13;;;1.07;60.94
30744;BME280;17486;46.738;7.622;2022-12-18T05:51:07;96241.97;;;1.07;60.62
30744;BME280;17486;46.738;7.622;2022-12-18T05:53:32;96255.66;;;1.12;60.46
30744;BME280;17486;46.738;7.622;2022-12-18T05:56:07;96239.41;;;1.10;60.45
30744;BME280;17486;46.738;7.622;2022-12-18T05:58:33;96245.38;;;1.07;60.80
30744;BME280;17486;46.738;7.622;2022-12-18T06:01:10;96194.94;;;0.85;60.78
30744;BME280;17486;46.738;7.622;2022-12-18T06:03:36;96242.00;;;1.11;60.61
30744;BME280;17486;46.738;7.622;2022-12-18T06:06:02;96236.00;;;1.09;60.35
30744;BME280;17486;46.738;7.622;2022-12-18T06:08:27;96252.22;;;1.07;60.54
30744;BME280;17486;46.738;7.622;2022-12-18T06:10:53;96239.41;;;1.05;60.85
30744;BME280;17486;46.738;7.622;2022-12-18T06:13:19;96242.81;;;1.03;60.66
30744;BME280;17486;46.738;7.622;2022-12-18T06:15:45;96236.81;;;1.02;60.90
30744;BME280;17486;46.738;7.622;2022-12-18T06:18:10;96214.56;;;0.89;60.73
30744;BME280;17486;46.738;7.622;2022-12-18T06:20:36;96200.03;;;0.78;60.59
30744;BME280;17486;46.738;7.622;2022-12-18T06:23:02;96227.38;;;0.84;60.88
30744;BME280;17486;46.738;7.622;2022-12-18T06:25:28;96269.28;;;1.02;60.65
30744;BME280;17486;46.738;7.622;2022-12-18T06:27:54;96255.59;;;0.99;60.81
30744;BME280;17486;46.738;7.622;2022-12-18T06:30:20;96240.19;;;0.86;60.29
30744;BME280;17486;46.738;7.622;2022-12-18T06:32:45;96263.31;;;1.03;60.52
30744;BME280;17486;46.738;7.622;2022-12-18T06:35:12;96265.84;;;0.98;60.69
30744;BME280;17486;46.738;7.622;2022-12-18T06:37:38;96248.72;;;0.85;60.23
30744;BME280;17486;46.738;7.622;2022-12-18T06:40:03;96229.91;;;0.76;60.68
30744;BME280;17486;46.738;7.622;2022-12-18T06:42:30;96263.28;;;0.98;60.45
30744;BME280;17486;46.738;7.622;2022-12-18T06:44:55;96232.47;;;0.79;60.44
30744;BME280;17486;46.738;7.622;2022-12-18T06:47:21;96278.69;;;1.01;59.83
30744;BME280;17486;46.738;7.622;2022-12-18T06:49:46;96230.75;;;0.78;59.89
30744;BME280;17486;46.738;7.622;2022-12-18T06:52:11;96287.19;;;1.03;60.22
30744;BME280;17486;46.738;7.622;2022-12-18T06:54:37;96288.91;;;1.03;59.72
30744;BME280;17486;46.738;7.622;2022-12-18T06:57:02;96251.22;;;0.78;59.79
30744;BME280;17486;46.738;7.622;2022-12-18T06:59:29;96242.69;;;0.75;60.27
30744;BME280;17486;46.738;7.622;2022-12-18T07:01:54;96240.09;;;0.70;60.01
30744;BME280;17486;46.738;7.622;2022-12-18T07:04:20;96270.03;;;0.83;60.29
30744;BME280;17486;46.738;7.622;2022-12-18T07:06:45;96300.84;;;1.01;60.17
30744;BME280;17486;46.738;7.622;2022-12-18T07:09:10;96289.72;;;0.94;60.48
30744;BME280;17486;46.738;7.622;2022-12-18T07:11:36;96301.69;;;0.98;60.19
30744;BME280;17486;46.738;7.622;2022-12-18T07:14:01;96307.66;;;0.95;60.32
30744;BME280;17486;46.738;7.622;2022-12-18T07:16:27;96301.69;;;0.98;60.65
30744;BME280;17486;46.738;7.622;2022-12-18T07:18:56;96305.13;;;1.00;60.54
30744;BME280;17486;46.738;7.622;2022-12-18T07:21:23;96310.25;;;1.00;60.18
30744;BME280;17486;46.738;7.622;2022-12-18T07:23:49;96272.59;;;0.80;60.12
30744;BME280;17486;46.738;7.622;2022-12-18T07:26:16;96246.91;;;0.62;60.21
30744;BME280;17486;46.738;7.622;2022-12-18T07:28:42;96276.00;;;0.78;60.62
30744;BME280;17486;46.738;7.622;2022-12-18T07:31:13;96314.53;;;1.01;60.94
30744;BME280;17486;46.738;7.622;2022-12-18T07:33:38;96321.34;;;0.96;60.50
30744;BME280;17486;46.738;7.622;2022-12-18T07:36:06;96329.06;;;1.04;60.56
30744;BME280;17486;46.738;7.622;2022-12-18T07:38:33;96319.63;;;0.99;60.97
30744;BME280;17486;46.738;7.622;2022-12-18T07:41:17;96335.88;;;1.03;61.10
30744;BME280;17486;46.738;7.622;2022-12-18T07:43:44;96331.63;;;1.10;61.02
30744;BME280;17486;46.738;7.622;2022-12-18T07:46:10;96344.47;;;1.11;60.66
30744;BME280;17486;46.738;7.622;2022-12-18T07:48:36;96313.63;;;0.93;60.60
30744;BME280;17486;46.738;7.622;2022-12-18T07:51:04;96359.84;;;1.11;60.96
30744;BME280;17486;46.738;7.622;2022-12-18T07:53:30;96352.16;;;1.11;60.97
30744;BME280;17486;46.738;7.622;2022-12-18T07:56:00;96345.31;;;1.10;60.66
30744;BME280;17486;46.738;7.622;2022-12-18T07:58:28;96357.28;;;1.13;61.19
30744;BME280;17486;46.738;7.622;2022-12-18T08:00:53;96315.34;;;0.94;61.15
30744;BME280;17486;46.738;7.622;2022-12-18T08:03:19;96358.13;;;1.16;60.99
30744;BME280;17486;46.738;7.622;2022-12-18T08:05:44;96363.31;;;1.23;60.46
30744;BME280;17486;46.738;7.622;2022-12-18T08:08:10;96321.34;;;0.96;60.51
30744;BME280;17486;46.738;7.622;2022-12-18T08:10:37;96361.59;;;1.22;60.96
30744;BME280;17486;46.738;7.622;2022-12-18T08:13:02;96356.47;;;1.22;60.79
30744;BME280;17486;46.738;7.622;2022-12-18T08:15:28;96327.34;;;1.01;60.56
30744;BME280;17486;46.738;7.622;2022-12-18T08:17:56;96359.91;;;1.24;60.52
30744;BME280;17486;46.738;7.622;2022-12-18T08:20:21;96342.75;;;1.13;60.83
30744;BME280;17486;46.738;7.622;2022-12-18T08:22:48;96366.75;;;1.31;60.76
30744;BME280;17486;46.738;7.622;2022-12-18T08:25:14;96327.38;;;1.09;60.40
30744;BME280;17486;46.738;7.622;2022-12-18T08:27:39;96374.47;;;1.32;60.31
30744;BME280;17486;46.738;7.622;2022-12-18T08:30:05;96372.78;;;1.39;60.67
30744;BME280;17486;46.738;7.622;2022-12-18T08:32:31;96330.84;;;1.17;60.54
30744;BME280;17486;46.738;7.622;2022-12-18T08:34:58;96371.91;;;1.37;60.84
30744;BME280;17486;46.738;7.622;2022-12-18T08:37:23;96375.34;;;1.45;60.38
30744;BME280;17486;46.738;7.622;2022-12-18T08:39:49;96368.53;;;1.44;60.36
30744;BME280;17486;46.738;7.622;2022-12-18T08:42:14;96369.38;;;1.43;60.38
30744;BME280;17486;46.738;7.622;2022-12-18T08:44:58;96370.25;;;1.48;60.12
30744;BME280;17486;46.738;7.622;2022-12-18T08:47:24;96374.56;;;1.53;59.99
30744;BME280;17486;46.738;7.622;2022-12-18T08:49:51;96333.44;;;1.28;60.00
30744;BME280;17486;46.738;7.622;2022-12-18T08:52:16;96383.13;;;1.56;60.25
30744;BME280;17486;46.738;7.622;2022-12-18T08:54:41;96361.72;;;1.56;59.91
30744;BME280;17486;46.738;7.622;2022-12-18T08:57:07;96370.25;;;1.50;59.88
30744;BME280;17486;46.738;7.622;2022-12-18T08:59:32;96314.66;;;1.26;60.13
30744;BME280;17486;46.738;7.622;2022-12-18T09:01:58;96335.22;;;1.46;59.89
30744;BME280;17486;46.738;7.622;2022-12-18T09:04:23;96315.53;;;1.32;60.01
30744;BME280;17486;46.738;7.622;2022-12-18T09:06:48;96350.63;;;1.54;59.82
30744;BME280;17486;46.738;7.622;2022-12-18T09:09:14;96307.84;;;1.36;59.87
30744;BME280;17486;46.738;7.622;2022-12-18T09:11:39;96341.22;;;1.56;59.60
30744;BME280;17486;46.738;7.622;2022-12-18T09:14:05;96345.53;;;1.60;59.63
30744;BME280;17486;46.738;7.622;2022-12-18T09:16:31;96344.66;;;1.61;59.73
30744;BME280;17486;46.738;7.622;2022-12-18T09:18:57;96304.47;;;1.43;59.92
30744;BME280;17486;46.738;7.622;2022-12-18T09:21:28;96307.88;;;1.45;59.89
30744;BME280;17486;46.738;7.622;2022-12-18T09:23:54;96328.44;;;1.65;59.63
30744;BME280;17486;46.738;7.622;2022-12-18T09:26:21;96303.59;;;1.45;59.70
30744;BME280;17486;46.738;7.622;2022-12-18T09:28:47;96337.88;;;1.69;59.88
30744;BME280;17486;46.738;7.622;2022-12-18T09:31:13;96356.69;;;1.74;59.71
30744;BME280;17486;46.738;7.622;2022-12-18T09:33:39;96299.34;;;1.47;60.04
30744;BME280;17486;46.738;7.622;2022-12-18T09:36:08;96343.00;;;1.75;59.49
30744;BME280;17486;46.738;7.622;2022-12-18T09:38:35;96314.78;;;1.60;59.35
30744;BME280;17486;46.738;7.622;2022-12-18T09:41:05;96349.88;;;1.82;59.40
30744;BME280;17486;46.738;7.622;2022-12-18T09:43:58;96344.72;;;1.79;59.33
30744;BME280;17486;46.738;7.622;2022-12-18T09:46:29;96349.88;;;1.84;58.91
30744;BME280;17486;46.738;7.622;2022-12-18T09:48:59;96360.16;;;1.89;59.02
30744;BME280;17486;46.738;7.622;2022-12-18T09:51:37;96350.75;;;1.86;59.24
30744;BME280;17486;46.738;7.622;2022-12-18T09:54:11;96361.00;;;1.92;59.18
30744;BME280;17486;46.738;7.622;2022-12-18T09:56:41;96383.22;;;1.96;58.95
30744;BME280;17486;46.738;7.622;2022-12-18T09:59:32;96362.72;;;1.95;59.21
30744;BME280;17486;46.738;7.622;2022-12-18T10:01:59;96368.72;;;1.97;59.41
30744;BME280;17486;46.738;7.622;2022-12-18T10:04:27;96330.16;;;1.72;59.15
30744;BME280;17486;46.738;7.622;2022-12-18T10:07:03;96374.69;;;1.99;58.91
30744;BME280;17486;46.738;7.622;2022-12-18T10:09:37;96356.72;;;1.87;58.98
30744;BME280;17486;46.738;7.622;2022-12-18T10:12:24;96387.50;;;1.99;59.21
30744;BME280;17486;46.738;7.622;2022-12-18T10:18:14;96392.66;;;2.04;60.00
30744;BME280;17486;46.738;7.622;2022-12-18T10:20:47;96390.13;;;2.11;59.60
30744;BME280;17486;46.738;7.622;2022-12-18T10:26:02;96385.00;;;2.18;59.83
30744;BME280;17486;46.738;7.622;2022-12-18T10:28:30;96356.75;;;2.08;60.04
30744;BME280;17486;46.738;7.622;2022-12-18T10:30:56;96385.88;;;2.23;59.87
30744;BME280;17486;46.738;7.622;2022-12-18T10:33:24;96376.47;;;2.22;59.88
30744;BME280;17486;46.738;7.622;2022-12-18T10:35:52;96337.09;;;2.09;59.55
30744;BME280;17486;46.738;7.622;2022-12-18T10:43:27;96330.25;;;2.20;59.50
30744;BME280;17486;46.738;7.622;2022-12-18T10:46:12;96333.69;;;2.21;59.37
30744;BME280;17486;46.738;7.622;2022-12-18T10:48:53;96318.28;;;2.22;59.25
30744;BME280;17486;46.738;7.622;2022-12-18T10:51:25;96337.09;;;2.43;59.43
30744;BME280;17486;46.738;7.622;2022-12-18T10:53:57;96361.94;;;2.55;59.09
30744;BME280;17486;46.738;7.622;2022-12-18T10:56:27;96353.34;;;2.59;59.27
30744;BME280;17486;46.738;7.622;2022-12-18T10:59:01;96354.22;;;2.65;59.06
30744;BME280;17486;46.738;7.622;2022-12-18T11:01:28;96309.72;;;2.48;59.19
30744;BME280;17486;46.738;7.622;2022-12-18T11:06:23;96313.13;;;2.59;58.96
30744;BME280;17486;46.738;7.622;2022-12-18T11:09:18;96341.34;;;2.82;58.79
30744;BME280;17486;46.738;7.622;2022-12-18T11:11:53;96344.75;;;2.94;58.71
30744;BME280;17486;46.738;7.622;2022-12-18T11:14:25;96307.09;;;2.77;58.31
30744;BME280;17486;46.738;7.622;2022-12-18T11:16:52;96305.41;;;2.79;58.31
30744;BME280;17486;46.738;7.622;2022-12-18T11:21:44;96351.63;;;2.96;57.71
30744;BME280;17486;46.738;7.622;2022-12-18T11:24:39;96349.91;;;2.94;58.15
30744;BME280;17486;46.738;7.622;2022-12-18T11:27:16;96349.91;;;2.95;58.05
30744;BME280;17486;46.738;7.622;2022-12-18T11:29:43;96342.22;;;2.92;57.88
30744;BME280;17486;46.738;7.622;2022-12-18T11:34:46;96343.91;;;2.98;57.75
30744;BME280;17486;46.738;7.622;2022-12-18T11:37:14;96299.41;;;2.76;57.85
30744;BME280;17486;46.738;7.622;2022-12-18T11:39:44;96336.22;;;2.95;57.67
30744;BME280;17486;46.738;7.622;2022-12-18T11:42:21;96295.13;;;2.79;57.73
30744;BME280;17486;46.738;7.622;2022-12-18T11:44:59;96304.50;;;2.88;57.55
30744;BME280;17486;46.738;7.622;2022-12-18T11:47:58;96339.59;;;3.09;57.79
30744;BME280;17486;46.738;7.622;2022-12-18T11:50:49;96320.75;;;3.12;57.34
30744;BME280;17486;46.738;7.622;2022-12-18T11:53:16;96307.91;;;3.06;57.28
30744;BME280;17486;46.738;7.622;2022-12-18T11:58:49;96318.16;;;3.20;57.35
30744;BME280;17486;46.738;7.622;2022-12-18T12:07:19;96315.56;;;3.24;56.90
30744;BME280;17486;46.738;7.622;2022-12-18T12:15:55;96298.41;;;3.22;56.71
30744;BME280;17486;46.738;7.622;2022-12-18T12:21:03;96300.16;;;3.15;56.62
30744;BME280;17486;46.738;7.622;2022-12-18T12:26:40;96314.72;;;3.24;56.68
30744;BME280;17486;46.738;7.622;2022-12-18T12:31:58;96300.13;;;3.24;56.65
30744;BME280;17486;46.738;7.622;2022-12-18T12:34:41;96293.28;;;3.20;56.84
30744;BME280;17486;46.738;7.622;2022-12-18T12:37:47;96285.56;;;3.20;56.58
30744;BME280;17486;46.738;7.622;2022-12-18T12:40:18;96284.72;;;3.21;56.90
30744;BME280;17486;46.738;7.622;2022-12-18T12:42:58;96268.44;;;3.19;56.25
30744;BME280;17486;46.738;7.622;2022-12-18T12:45:55;96252.16;;;3.15;56.61
30744;BME280;17486;46.738;7.622;2022-12-18T12:51:22;96214.56;;;2.94;56.87
30744;BME280;17486;46.738;7.622;2022-12-18T12:53:49;96266.72;;;3.21;56.74
30744;BME280;17486;46.738;7.622;2022-12-18T12:56:18;96269.28;;;3.23;56.84
30744;BME280;17486;46.738;7.622;2022-12-18T13:04:05;96274.41;;;3.29;56.55
30744;BME280;17486;46.738;7.622;2022-12-18T13:06:43;96282.09;;;3.34;56.65
30744;BME280;17486;46.738;7.622;2022-12-18T13:09:10;96270.06;;;3.40;56.71
30744;BME280;17486;46.738;7.622;2022-12-18T13:11:44;96252.94;;;3.35;56.98
30744;BME280;17486;46.738;7.622;2022-12-18T13:14:38;96275.94;;;3.64;57.05
30744;BME280;17486;46.738;7.622;2022-12-18T13:19:43;96237.28;;;3.75;56.50
30744;BME280;17486;46.738;7.622;2022-12-18T13:22:22;96235.50;;;3.85;56.28
30744;BME280;17486;46.738;7.622;2022-12-18T13:24:49;96271.38;;;4.05;56.25
30744;BME280;17486;46.738;7.622;2022-12-18T13:38:36;96275.81;;;3.81;55.44
30744;BME280;17486;46.738;7.622;2022-12-18T13:41:14;96247.69;;;3.55;55.49
30744;BME280;17486;46.738;7.622;2022-12-18T13:43:54;96252.88;;;3.50;56.00
30744;BME280;17486;46.738;7.622;2022-12-18T13:46:30;96272.56;;;3.56;55.71
30744;BME280;17486;46.738;7.622;2022-12-18T13:51:44;96276.03;;;3.48;55.43
30744;BME280;17486;46.738;7.622;2022-12-18T13:54:33;96270.91;;;3.39;55.73
30744;BME280;17486;46.738;7.622;2022-12-18T13:57:00;96258.13;;;3.25;56.19
30744;BME280;17486;46.738;7.622;2022-12-18T13:59:37;96238.50;;;3.12;56.21
30744;BME280;17486;46.738;7.622;2022-12-18T14:04:38;96265.84;;;3.21;56.23
30744;BME280;17486;46.738;7.622;2022-12-18T14:07:06;96272.72;;;3.15;56.43
30744;BME280;17486;46.738;7.622;2022-12-18T14:09:39;96238.56;;;2.92;56.81
30744;BME280;17486;46.738;7.622;2022-12-18T14:12:06;96251.38;;;3.03;56.81
30744;BME280;17486;46.738;7.622;2022-12-18T14:14:56;96223.16;;;2.89;56.70
30744;BME280;17486;46.738;7.622;2022-12-18T14:17:22;96261.63;;;3.09;56.71
30744;BME280;17486;46.738;7.622;2022-12-18T14:19:50;96264.19;;;3.10;56.94
30744;BME280;17486;46.738;7.622;2022-12-18T14:22:21;96265.91;;;3.08;57.17
30744;BME280;17486;46.738;7.622;2022-12-18T14:25:20;96257.34;;;3.11;57.23
30744;BME280;17486;46.738;7.622;2022-12-18T14:30:35;96213.78;;;2.83;57.16
30744;BME280;17486;46.738;7.622;2022-12-18T14:40:51;96242.84;;;2.88;57.68
30744;BME280;17486;46.738;7.622;2022-12-18T14:43:17;96248.84;;;2.90;57.87
30744;BME280;17486;46.738;7.622;2022-12-18T14:45:43;96252.25;;;2.91;57.90
30744;BME280;17486;46.738;7.622;2022-12-18T14:51:05;96259.16;;;2.86;58.27
30744;BME280;17486;46.738;7.622;2022-12-18T14:53:35;96258.28;;;2.87;58.71
30744;BME280;17486;46.738;7.622;2022-12-18T14:56:03;96242.84;;;2.87;58.37
30744;BME280;17486;46.738;7.622;2022-12-18T14:58:36;96247.13;;;2.94;59.23
30744;BME280;17486;46.738;7.622;2022-12-18T15:01:01;96234.28;;;2.91;59.07
30744;BME280;17486;46.738;7.622;2022-12-18T15:03:27;96246.28;;;2.95;58.77
30744;BME280;17486;46.738;7.622;2022-12-18T15:05:52;96249.69;;;3.00;58.73
30744;BME280;17486;46.738;7.622;2022-12-18T15:08:34;96218.91;;;2.83;58.34